Airfield :
LOGIN :

Register | Disclaimer

   EN    FR    IT 

 










Legend :    VFR   Marginal VFR   IFR   Intensive IFR   Very Intensive IFR
Visi :
Ceiling :
>= 8 km
>= 3000ft
5 to 8 km
1000 to 3000 ft
1500m to 5 km
500 to 1000 ft
800 to 1500m
200 to 500 ft
< 800m
< 200 ft
Symbols :   Thunderstorms  Fog  Heavy snow  Heavy precipitations  Wind > 20 kt
SIGMETs :     Misc.  Thunderstorms  Icing  Turbulence  Mountain Waves  Volcanic Ashes






- Airport Elevation : 464 ft
- IATA code : EVX


LFOE - Evreux

CURRENT METAR :
  • 300830Z AUTO 29005KT 9000 NSC 11/08 Q1012 NOSIG

EXPIRED METARs :
  • 300800Z AUTO /////KT CAVOK 09/08 Q1012
  • 300730Z AUTO 26003KT 200V300 CAVOK 08/08 Q1012 NOSIG
  • 300700Z AUTO VRB02KT 9000 FEW001 06/06 Q1012 TEMPO 4000 BR
  • 300630Z AUTO 22001KT CAVOK 05/05 Q1011 TEMPO 4000 BR
  • 300600Z AUTO /////KT 6000 NSC 05/04 Q1011

TAF TAF LFOE
Valid from the 30 at 09:00 until the 01 at 09:00 UTC


300800Z 3009/0109 25005KT CAVOK
BECMG 3010/3012 24010G20KT SCT025
BECMG 3021/3023 24020G30KT 4000 RA BKN020 OVC040
BECMG 0100/0101 2000 RADZ BKN008 OVC015
BECMG 0105/0107 27010G20KT 8000 NSW BKN015



MET'MAP, your aeronautical weather chart ! - Copyright ORBIFLY December 2007 - Disclaimer

ORBIFLY MET'MAP TEAM :

Programming & Development : Alexandra Zaïnal
Original concept : Baudouin d'Aumeries
Technical & hardware support : Manuel Goepfert
Assistance : Marc-Olivier Méhu




SOURCES & CREDITS :

   NOAA